createdAt,value
2019-06-27T00:01:26.271Z,99.90
2019-06-27T00:04:49.539Z,99.90
2019-06-27T00:08:12.729Z,99.90
2019-06-27T00:11:35.966Z,99.90
2019-06-27T00:14:59.163Z,99.90
2019-06-27T00:18:22.438Z,99.90
2019-06-27T00:21:45.500Z,99.90
2019-06-27T00:25:08.784Z,99.90
2019-06-27T00:28:31.910Z,99.90
2019-06-27T00:31:55.158Z,99.90
2019-06-27T00:35:18.374Z,99.90
2019-06-27T00:38:41.616Z,99.90
2019-06-27T00:42:04.837Z,99.90
2019-06-27T00:45:27.977Z,99.90
2019-06-27T00:48:51.142Z,99.90
2019-06-27T00:52:14.340Z,99.90
2019-06-27T00:55:37.746Z,99.90
2019-06-27T00:59:00.948Z,99.90
2019-06-27T01:02:24.031Z,99.90
2019-06-27T01:05:47.159Z,99.90
2019-06-27T01:09:10.205Z,99.90
2019-06-27T01:12:33.570Z,99.90
2019-06-27T01:15:56.837Z,99.90
2019-06-27T01:19:19.974Z,99.90
2019-06-27T01:22:43.056Z,99.90
2019-06-27T01:26:06.309Z,99.90
2019-06-27T01:29:29.437Z,99.90
2019-06-27T01:32:52.786Z,99.90
2019-06-27T01:36:15.965Z,99.90
2019-06-27T01:39:39.369Z,99.90
2019-06-27T01:43:02.530Z,99.90
2019-06-27T01:46:26.781Z,99.90
2019-06-27T01:49:50.172Z,99.90
2019-06-27T01:53:13.351Z,99.90
2019-06-27T01:56:36.457Z,99.90
2019-06-27T01:59:59.671Z,99.90
2019-06-27T02:03:22.781Z,99.90
2019-06-27T02:06:45.879Z,99.90
2019-06-27T02:10:09.489Z,99.90
2019-06-27T02:13:32.826Z,99.90
2019-06-27T02:16:55.966Z,99.90
2019-06-27T02:20:19.168Z,99.90
2019-06-27T02:23:42.345Z,99.90
2019-06-27T02:27:05.458Z,99.90
2019-06-27T02:30:46.566Z,99.90
2019-06-27T02:34:09.883Z,99.90
2019-06-27T02:37:33.064Z,99.90
2019-06-27T02:40:58.668Z,99.90
2019-06-27T02:44:23.212Z,99.90
2019-06-27T02:47:46.321Z,99.90
2019-06-27T02:51:10.005Z,99.90
2019-06-27T02:54:33.179Z,99.90
2019-06-27T02:57:56.317Z,99.90
2019-06-27T03:01:19.619Z,99.90
2019-06-27T03:04:42.747Z,99.90
2019-06-27T03:08:05.897Z,99.90
2019-06-27T03:11:29.035Z,99.90
2019-06-27T03:14:53.184Z,99.90
2019-06-27T03:18:17.404Z,99.90
2019-06-27T03:21:40.812Z,99.90
2019-06-27T03:25:05.157Z,99.90
2019-06-27T03:28:45.035Z,99.90
2019-06-27T03:31:53.342Z,99.90
2019-06-27T03:35:16.485Z,99.90
2019-06-27T03:38:39.750Z,99.90
2019-06-27T03:42:03.144Z,99.90
2019-06-27T03:45:26.234Z,99.90
2019-06-27T03:48:49.361Z,99.90
2019-06-27T03:52:12.522Z,99.90
2019-06-27T03:55:35.933Z,99.90
2019-06-27T03:59:11.570Z,99.90
2019-06-27T04:02:24.172Z,99.90
2019-06-27T04:05:47.271Z,99.90
2019-06-27T04:09:10.712Z,99.90
2019-06-27T04:12:33.967Z,99.90
2019-06-27T04:15:57.202Z,99.90
2019-06-27T04:19:20.357Z,99.90
2019-06-27T04:22:43.725Z,99.90
2019-06-27T04:26:06.923Z,99.90
2019-06-27T04:29:33.796Z,99.90
2019-06-27T04:32:55.065Z,99.90
2019-06-27T04:36:18.196Z,99.90
2019-06-27T04:39:41.371Z,99.90
2019-06-27T04:43:05.916Z,99.90
2019-06-27T04:46:29.896Z,99.90
2019-06-27T04:49:53.935Z,99.90
2019-06-27T04:53:17.471Z,99.90
2019-06-27T04:56:40.899Z,99.90
2019-06-27T05:00:04.662Z,99.90
2019-06-27T05:03:27.998Z,99.90
2019-06-27T05:06:51.236Z,99.90
2019-06-27T05:10:14.785Z,99.90
2019-06-27T05:13:41.168Z,99.90
2019-06-27T05:17:05.057Z,99.90
2019-06-27T05:20:28.210Z,99.90
2019-06-27T05:23:51.337Z,99.90
2019-06-27T05:27:14.554Z,99.90
2019-06-27T05:30:37.683Z,99.90
2019-06-27T05:34:00.775Z,99.90
2019-06-27T05:37:24.004Z,99.90
2019-06-27T05:40:47.130Z,99.90
2019-06-27T05:44:10.404Z,99.90
2019-06-27T05:47:33.595Z,99.90
2019-06-27T05:50:57.684Z,99.90
2019-06-27T05:54:20.931Z,99.90
2019-06-27T05:57:44.145Z,99.90
2019-06-27T06:01:07.290Z,99.90
2019-06-27T06:04:30.433Z,99.90
2019-06-27T06:07:53.639Z,99.90
2019-06-27T06:11:16.729Z,99.90
2019-06-27T06:14:40.017Z,99.90
2019-06-27T06:18:03.273Z,99.90
2019-06-27T06:21:26.949Z,99.90
2019-06-27T06:24:50.235Z,99.90
2019-06-27T06:28:13.900Z,99.90
2019-06-27T06:31:37.068Z,99.90
2019-06-27T06:35:00.248Z,99.90
2019-06-27T06:38:28.189Z,99.90
2019-06-27T06:42:05.425Z,99.90
2019-06-27T06:45:31.328Z,99.90
2019-06-27T06:48:54.679Z,99.90
2019-06-27T06:52:17.831Z,99.90
2019-06-27T06:55:42.813Z,99.90
2019-06-27T06:59:05.971Z,99.90
2019-06-27T07:02:31.496Z,99.90
2019-06-27T07:05:54.842Z,99.90
2019-06-27T07:09:17.941Z,99.90
2019-06-27T07:12:41.245Z,99.90
2019-06-27T07:16:04.568Z,99.90
2019-06-27T07:19:27.736Z,99.90
2019-06-27T07:22:51.168Z,99.90
2019-06-27T07:26:14.293Z,99.90
2019-06-27T07:29:37.581Z,99.90
2019-06-27T07:33:00.858Z,99.90
2019-06-27T07:36:24.026Z,99.90
2019-06-27T07:39:47.320Z,99.90
2019-06-27T07:43:10.545Z,99.90
2019-06-27T07:46:33.662Z,99.90
2019-06-27T07:49:58.479Z,99.90
2019-06-27T07:53:21.621Z,99.90
2019-06-27T07:56:46.289Z,99.90
2019-06-27T08:00:13.106Z,99.90
2019-06-27T08:03:36.660Z,99.90
2019-06-27T08:06:59.850Z,99.90
2019-06-27T08:10:23.010Z,99.90
2019-06-27T08:13:46.339Z,99.90
2019-06-27T08:17:09.934Z,99.90
2019-06-27T08:20:33.073Z,99.90
2019-06-27T08:23:56.555Z,99.90
2019-06-27T08:27:19.710Z,99.90
2019-06-27T08:30:42.853Z,99.90
2019-06-27T08:34:06.277Z,99.90
2019-06-27T08:37:29.392Z,99.90
2019-06-27T08:40:52.539Z,99.90
2019-06-27T08:44:15.662Z,99.90
2019-06-27T08:47:41.668Z,99.90
2019-06-27T08:51:04.776Z,99.90
2019-06-27T08:54:28.092Z,99.90
2019-06-27T08:57:51.403Z,99.90
2019-06-27T09:01:14.643Z,99.90
2019-06-27T09:04:38.295Z,99.90
2019-06-27T09:08:01.471Z,99.90
2019-06-27T09:11:24.961Z,99.90
2019-06-27T09:14:48.393Z,99.90
2019-06-27T09:18:11.627Z,99.90
2019-06-27T09:21:34.873Z,99.90
2019-06-27T09:24:58.053Z,99.90
2019-06-27T09:28:21.364Z,99.90
2019-06-27T09:31:44.624Z,99.90
2019-06-27T09:35:10.486Z,99.90
2019-06-27T09:38:33.779Z,99.90
2019-06-27T09:41:56.992Z,99.90
2019-06-27T09:45:22.201Z,99.90
2019-06-27T09:48:45.308Z,99.90
2019-06-27T09:52:08.557Z,99.90
2019-06-27T09:55:32.014Z,99.90
2019-06-27T09:58:55.107Z,99.90
2019-06-27T10:02:18.475Z,99.90
2019-06-27T10:05:42.038Z,99.90
2019-06-27T10:09:05.541Z,99.90
2019-06-27T10:12:41.697Z,99.90
2019-06-27T10:15:54.059Z,99.90
2019-06-27T10:19:17.210Z,99.90
2019-06-27T10:22:40.658Z,99.90
2019-06-27T10:26:03.875Z,99.90
2019-06-27T10:29:27.086Z,98.80
2019-06-27T10:32:59.108Z,99.80
2019-06-27T10:36:15.325Z,99.70
2019-06-27T10:39:38.664Z,98.80
2019-06-27T10:43:01.805Z,98.90
2019-06-27T10:46:25.071Z,97.10
2019-06-27T10:49:48.384Z,97.60
2019-06-27T10:53:11.569Z,98.20
2019-06-27T10:56:38.834Z,93.60
2019-06-27T11:00:01.130Z,91.70
2019-06-27T11:03:24.724Z,85.50
2019-06-27T11:06:47.912Z,79.00
2019-06-27T11:10:11.083Z,75.70
2019-06-27T11:13:34.577Z,71.70
2019-06-27T11:16:57.724Z,68.70
2019-06-27T11:20:20.954Z,61.60
2019-06-27T11:23:44.116Z,62.30
2019-06-27T11:27:07.436Z,58.80
2019-06-27T11:30:30.576Z,60.50
2019-06-27T11:33:53.985Z,55.70
2019-06-27T11:37:17.194Z,54.50
2019-06-27T11:40:40.710Z,53.90
2019-06-27T11:44:04.377Z,51.30
2019-06-27T11:47:27.793Z,50.00
2019-06-27T11:50:51.002Z,50.80
2019-06-27T11:54:14.285Z,49.40
2019-06-27T11:57:37.518Z,49.00
2019-06-27T12:01:00.633Z,47.10
2019-06-27T12:04:23.933Z,47.00
2019-06-27T12:07:47.120Z,45.40
2019-06-27T12:11:10.820Z,45.10
2019-06-27T12:14:33.988Z,44.30
2019-06-27T12:17:57.316Z,43.60
2019-06-27T12:21:20.428Z,42.20
2019-06-27T12:24:43.943Z,39.60
2019-06-27T12:28:07.085Z,40.10
2019-06-27T12:31:30.305Z,41.00
2019-06-27T12:34:53.737Z,38.30
2019-06-27T12:38:16.919Z,38.60
2019-06-27T12:41:40.334Z,38.30
2019-06-27T12:45:03.726Z,37.20
2019-06-27T12:48:30.408Z,37.30
2019-06-27T12:51:55.674Z,36.50
2019-06-27T12:55:19.253Z,36.80
2019-06-27T12:58:42.368Z,35.40
2019-06-27T13:02:05.796Z,34.70
2019-06-27T13:05:29.284Z,34.30
2019-06-27T13:08:52.517Z,33.40
2019-06-27T13:12:15.684Z,33.80
2019-06-27T13:15:39.345Z,33.00
2019-06-27T13:19:02.538Z,32.80
2019-06-27T13:22:25.961Z,33.00
2019-06-27T13:25:50.254Z,32.00
2019-06-27T13:29:13.386Z,31.90
2019-06-27T13:32:36.911Z,32.60
2019-06-27T13:36:00.290Z,33.00
2019-06-27T13:39:24.803Z,33.20
2019-06-27T13:42:48.485Z,33.30
2019-06-27T13:46:12.702Z,31.10
2019-06-27T13:49:35.983Z,31.10
2019-06-27T13:52:59.245Z,31.10
2019-06-27T13:56:22.512Z,31.10
2019-06-27T13:59:45.655Z,31.90
2019-06-27T14:03:10.287Z,30.90
2019-06-27T14:06:33.447Z,30.20
2019-06-27T14:09:57.415Z,31.00
2019-06-27T14:13:20.945Z,30.50
2019-06-27T14:16:44.367Z,31.80
2019-06-27T14:20:08.837Z,30.00
2019-06-27T14:23:32.504Z,29.60
2019-06-27T14:26:55.747Z,30.00
2019-06-27T14:30:19.046Z,29.50
2019-06-27T14:33:42.400Z,30.00
2019-06-27T14:37:05.513Z,30.00
2019-06-27T14:40:28.812Z,28.90
2019-06-27T14:43:52.041Z,29.90
2019-06-27T14:47:15.478Z,31.40
2019-06-27T14:50:38.784Z,29.50
2019-06-27T14:54:02.032Z,29.20
2019-06-27T14:57:25.696Z,29.20
2019-06-27T15:00:48.878Z,29.70
2019-06-27T15:04:12.009Z,29.30
2019-06-27T15:07:35.209Z,28.90
2019-06-27T15:10:58.339Z,28.80
2019-06-27T15:14:21.444Z,29.50
2019-06-27T15:17:44.641Z,29.90
2019-06-27T15:21:08.418Z,29.20
2019-06-27T15:24:31.545Z,29.30
2019-06-27T15:27:54.756Z,28.30
2019-06-27T15:31:17.876Z,28.50
2019-06-27T15:34:42.663Z,28.40
2019-06-27T15:38:05.898Z,29.40
2019-06-27T15:41:29.007Z,29.10
2019-06-27T15:44:52.135Z,28.60
2019-06-27T15:48:15.377Z,28.50
2019-06-27T15:51:38.553Z,28.40
2019-06-27T15:55:02.005Z,28.40
2019-06-27T15:58:26.346Z,27.60
2019-06-27T16:01:49.473Z,28.00
2019-06-27T16:05:13.873Z,28.00
2019-06-27T16:08:37.755Z,28.00
2019-06-27T16:12:00.849Z,29.40
2019-06-27T16:15:23.961Z,29.40
2019-06-27T16:18:47.090Z,29.60
2019-06-27T16:22:10.468Z,29.00
2019-06-27T16:25:33.638Z,28.60
2019-06-27T16:28:56.814Z,29.30
2019-06-27T16:32:19.942Z,29.20
2019-06-27T16:35:43.156Z,30.70
2019-06-27T16:39:06.598Z,33.60
2019-06-27T16:42:29.718Z,36.10
2019-06-27T16:45:53.003Z,39.00
2019-06-27T16:49:16.252Z,40.70
2019-06-27T16:52:39.658Z,39.60
2019-06-27T16:56:02.925Z,39.30
2019-06-27T16:59:26.135Z,38.90
2019-06-27T17:02:49.516Z,40.10
2019-06-27T17:06:12.606Z,39.20
2019-06-27T17:09:35.941Z,39.60
2019-06-27T17:12:59.043Z,41.00
2019-06-27T17:16:22.474Z,40.90
2019-06-27T17:19:45.836Z,41.20
2019-06-27T17:23:09.263Z,43.20
2019-06-27T17:26:33.619Z,44.80
2019-06-27T17:29:57.882Z,47.40
2019-06-27T17:33:23.197Z,49.60
2019-06-27T17:36:56.905Z,51.10
2019-06-27T17:40:12.187Z,51.50
2019-06-27T17:43:36.302Z,52.30
2019-06-27T17:46:59.372Z,51.60
2019-06-27T17:50:22.618Z,52.80
2019-06-27T17:53:45.825Z,53.10
2019-06-27T17:57:08.974Z,52.90
2019-06-27T18:00:32.543Z,53.90
2019-06-27T18:03:55.881Z,54.30
2019-06-27T18:07:19.019Z,56.00
2019-06-27T18:10:42.435Z,55.60
2019-06-27T18:14:05.699Z,57.00
2019-06-27T18:17:33.655Z,57.60
2019-06-27T18:20:54.033Z,57.80
2019-06-27T18:24:17.570Z,58.60
2019-06-27T18:27:40.817Z,58.20
2019-06-27T18:31:04.086Z,58.50
2019-06-27T18:34:27.292Z,59.50
2019-06-27T18:37:50.830Z,60.60
2019-06-27T18:41:14.054Z,60.80
2019-06-27T18:44:37.511Z,61.10
2019-06-27T18:48:00.733Z,60.90
2019-06-27T18:51:24.894Z,61.70
2019-06-27T18:54:48.019Z,61.30
2019-06-27T18:58:11.344Z,62.20
2019-06-27T19:01:34.858Z,63.60
2019-06-27T19:04:58.055Z,63.90
2019-06-27T19:08:21.192Z,64.80
2019-06-27T19:11:44.640Z,65.50
2019-06-27T19:15:08.331Z,65.90
2019-06-27T19:18:43.824Z,67.10
2019-06-27T19:22:26.595Z,67.70
2019-06-27T19:25:51.059Z,68.60
2019-06-27T19:29:14.231Z,69.80
2019-06-27T19:32:37.697Z,70.00
2019-06-27T19:36:03.265Z,72.00
2019-06-27T19:39:27.132Z,73.80
2019-06-27T19:42:50.802Z,74.10
2019-06-27T19:46:14.010Z,75.40
2019-06-27T19:49:37.165Z,75.90
2019-06-27T19:53:00.448Z,77.40
2019-06-27T19:56:23.667Z,79.10
2019-06-27T19:59:46.774Z,79.50
2019-06-27T20:03:10.309Z,81.60
2019-06-27T20:06:33.834Z,82.50
2019-06-27T20:09:57.003Z,84.60
2019-06-27T20:13:20.263Z,87.00
2019-06-27T20:16:44.064Z,90.00
2019-06-27T20:20:08.529Z,90.70
2019-06-27T20:23:31.700Z,92.70
2019-06-27T20:26:54.963Z,94.20
2019-06-27T20:30:18.535Z,95.10
2019-06-27T20:33:41.776Z,95.70
2019-06-27T20:37:04.928Z,96.00
2019-06-27T20:40:28.135Z,98.00
2019-06-27T20:43:51.211Z,98.00
2019-06-27T20:47:14.356Z,98.30
2019-06-27T20:50:37.654Z,99.20
2019-06-27T20:54:00.831Z,99.30
2019-06-27T20:57:24.114Z,99.50
2019-06-27T21:00:47.598Z,99.90
2019-06-27T21:04:10.863Z,99.90
2019-06-27T21:07:33.964Z,99.90
2019-06-27T21:10:57.275Z,99.90
2019-06-27T21:14:20.486Z,99.90
2019-06-27T21:17:44.820Z,99.90
2019-06-27T21:21:07.971Z,99.90
2019-06-27T21:24:31.354Z,99.90
2019-06-27T21:27:54.503Z,99.90
2019-06-27T21:31:17.742Z,99.90
2019-06-27T21:34:40.867Z,99.90
2019-06-27T21:38:04.082Z,99.90
2019-06-27T21:41:27.182Z,99.90
2019-06-27T21:44:50.302Z,99.90
2019-06-27T21:48:13.451Z,99.90
2019-06-27T21:51:36.639Z,99.90
2019-06-27T21:54:59.882Z,99.90
2019-06-27T21:58:23.062Z,99.90
2019-06-27T22:01:46.577Z,99.90
2019-06-27T22:05:10.226Z,99.90
2019-06-27T22:08:33.452Z,99.90
2019-06-27T22:11:56.777Z,99.90
2019-06-27T22:15:20.044Z,99.90
2019-06-27T22:18:43.152Z,99.90
2019-06-27T22:22:06.278Z,99.90
2019-06-27T22:25:39.624Z,99.90
2019-06-27T22:28:54.719Z,99.90
2019-06-27T22:32:18.146Z,99.90
2019-06-27T22:35:41.541Z,99.90
2019-06-27T22:39:22.778Z,99.90
2019-06-27T22:43:04.493Z,99.90
2019-06-27T22:46:46.461Z,99.90
2019-06-27T22:50:23.689Z,99.90
2019-06-27T22:54:05.311Z,99.90
2019-06-27T22:57:30.484Z,99.90
2019-06-27T23:00:56.513Z,99.90
2019-06-27T23:04:19.990Z,99.90
2019-06-27T23:07:43.095Z,99.90
2019-06-27T23:11:06.281Z,99.90
2019-06-27T23:14:29.377Z,99.90
2019-06-27T23:17:52.520Z,99.90
2019-06-27T23:21:15.650Z,99.90
2019-06-27T23:24:38.743Z,99.90
2019-06-27T23:28:02.009Z,99.90
2019-06-27T23:31:25.169Z,99.90
2019-06-27T23:34:48.295Z,99.90
2019-06-27T23:38:11.498Z,99.90
2019-06-27T23:41:34.682Z,99.90
2019-06-27T23:44:58.057Z,99.90
2019-06-27T23:48:21.313Z,99.90
2019-06-27T23:51:44.443Z,99.90
2019-06-27T23:55:09.517Z,99.90
2019-06-27T23:58:33.041Z,99.90
